Time;durP1;ratioP1;P1;durP2;ratioP2;P2;SDS_P1;SDS_P2;PMS_P1;PMS_P2;Temp;Humidity;BMP_temperature;BMP_pressure;BME280_temperature;BME280_humidity;BME280_pressure;Samples;Min_cycle;Max_cycle;Signal;HPM_P1;HPM_P2
2021/12/27 00:02:08;;;;;;;88.90;29.33;;;;;;;;;;5015802;28;20038;-83
2021/12/27 00:04:35;;;;;;;93.53;29.60;;;;;;;;;;5015661;28;20038;-83
2021/12/27 00:07:01;;;;;;;82.47;28.38;;;;;;;;;;5015435;28;20034;-83
2021/12/27 00:09:27;;;;;;;69.82;25.48;;;;;;;;;;5015550;28;20108;-83
2021/12/27 00:11:54;;;;;;;71.55;26.38;;;;;;;;;;5015500;28;20125;-83
2021/12/27 00:14:20;;;;;;;70.03;27.67;;;;;;;;;;5015572;28;20030;-83
2021/12/27 00:16:46;;;;;;;67.97;27.05;;;;;;;;;;5015476;28;20034;-83
2021/12/27 00:19:13;;;;;;;60.55;25.50;;;;;;;;;;5015522;28;20038;-83
2021/12/27 00:21:39;;;;;;;57.70;25.30;;;;;;;;;;5015508;28;20084;-83
2021/12/27 00:24:05;;;;;;;51.95;22.73;;;;;;;;;;5015466;28;20036;-83
2021/12/27 00:26:32;;;;;;;42.67;19.73;;;;;;;;;;5015954;28;20025;-83
2021/12/27 00:28:58;;;;;;;35.38;17.25;;;;;;;;;;5018998;28;20120;-83
2021/12/27 00:31:24;;;;;;;30.80;14.88;;;;;;;;;;5018772;28;20034;-85
2021/12/27 00:33:51;;;;;;;34.05;14.90;;;;;;;;;;5018987;28;20388;-83
2021/12/27 00:36:17;;;;;;;25.83;14.40;;;;;;;;;;5018599;28;20057;-83
2021/12/27 00:38:43;;;;;;;27.27;13.35;;;;;;;;;;5018747;28;20139;-84
2021/12/27 00:41:09;;;;;;;25.38;13.38;;;;;;;;;;5018675;28;20057;-84
2021/12/27 00:43:36;;;;;;;23.80;11.93;;;;;;;;;;5018661;28;20029;-83
2021/12/27 00:46:02;;;;;;;21.50;10.63;;;;;;;;;;5018779;28;20037;-84
2021/12/27 00:48:28;;;;;;;16.15;9.52;;;;;;;;;;5018657;28;20373;-83
2021/12/27 00:50:55;;;;;;;14.07;7.63;;;;;;;;;;5018499;28;20507;-84
2021/12/27 00:53:21;;;;;;;15.18;7.85;;;;;;;;;;5018496;28;20453;-84
2021/12/27 00:55:47;;;;;;;16.80;8.95;;;;;;;;;;5018495;28;20439;-84
2021/12/27 00:58:14;;;;;;;16.60;8.43;;;;;;;;;;5018284;28;20484;-84
2021/12/27 01:00:40;;;;;;;17.80;9.85;;;;;;;;;;5018490;28;20037;-84
2021/12/27 01:03:06;;;;;;;17.63;9.25;;;;;;;;;;5036151;28;20030;-84
2021/12/27 01:05:33;;;;;;;21.42;11.07;;;;;;;;;;5017921;28;20029;-84
2021/12/27 01:07:59;;;;;;;19.67;10.57;;;;;;;;;;5018395;28;20360;-84
2021/12/27 01:10:59;;;;;;;20.20;10.23;;;;;;;;;;5018164;28;20087;-84
2021/12/27 01:13:22;;;;;;;23.27;11.70;;;;;;;;;;5035264;28;20037;-83
2021/12/27 01:16:02;;;;;;;28.83;14.40;;;;;;;;;;5017992;28;20462;-84
2021/12/27 01:18:29;;;;;;;32.58;16.50;;;;;;;;;;5035945;28;20047;-84
2021/12/27 01:20:55;;;;;;;30.45;16.38;;;;;;;;;;5018086;28;20044;-84
2021/12/27 01:23:22;;;;;;;31.60;16.55;;;;;;;;;;5017993;28;20030;-84
2021/12/27 01:25:48;;;;;;;41.90;19.15;;;;;;;;;;5036061;28;20064;-84
2021/12/27 01:28:16;;;;;;;50.55;22.40;;;;;;;;;;5017912;28;20064;-84
2021/12/27 01:30:47;;;;;;;55.03;22.40;;;;;;;;;;5017775;28;20041;-84
2021/12/27 01:33:14;;;;;;;53.95;23.83;;;;;;;;;;5018351;28;20615;-84
2021/12/27 01:35:40;;;;;;;55.22;23.33;;;;;;;;;;5017712;28;20079;-83
2021/12/27 01:38:07;;;;;;;61.55;25.10;;;;;;;;;;5016883;28;20041;-84
2021/12/27 01:40:33;;;;;;;69.70;27.98;;;;;;;;;;5017690;28;20041;-84
2021/12/27 01:43:20;;;;;;;62.10;28.48;;;;;;;;;;5017636;28;20596;-84
2021/12/27 01:45:50;;;;;;;59.92;24.95;;;;;;;;;;5007491;28;20481;-84
2021/12/27 01:48:20;;;;;;;54.97;22.83;;;;;;;;;;5035573;28;20033;-84
2021/12/27 01:50:47;;;;;;;57.63;25.20;;;;;;;;;;5017482;28;20083;-84
2021/12/27 01:53:15;;;;;;;65.63;28.10;;;;;;;;;;5017572;28;20431;-85
2021/12/27 01:55:41;;;;;;;68.47;31.70;;;;;;;;;;5035385;28;20087;-84
2021/12/27 01:58:07;;;;;;;69.85;31.05;;;;;;;;;;5017316;28;20030;-85
2021/12/27 02:00:35;;;;;;;71.82;31.90;;;;;;;;;;5017292;28;20037;-85
2021/12/27 02:03:03;;;;;;;72.22;34.15;;;;;;;;;;5017316;28;20447;-84
2021/12/27 02:05:30;;;;;;;73.97;33.88;;;;;;;;;;5034842;28;20029;-84
2021/12/27 02:07:56;;;;;;;83.13;37.28;;;;;;;;;;5017013;28;20029;-84
2021/12/27 02:10:22;;;;;;;77.05;35.38;;;;;;;;;;5017279;28;20026;-85
2021/12/27 02:12:49;;;;;;;80.38;37.90;;;;;;;;;;5017077;28;20372;-85
2021/12/27 02:15:15;;;;;;;81.85;37.10;;;;;;;;;;5017187;28;20472;-85
2021/12/27 02:17:43;;;;;;;85.85;36.25;;;;;;;;;;5017064;28;20039;-85
2021/12/27 02:20:11;;;;;;;92.82;39.58;;;;;;;;;;5016897;28;20132;-85
2021/12/27 02:22:40;;;;;;;84.88;35.75;;;;;;;;;;5016906;28;20077;-85
2021/12/27 02:25:07;;;;;;;82.10;34.22;;;;;;;;;;5034678;28;20542;-84
2021/12/27 02:27:33;;;;;;;114.72;47.97;;;;;;;;;;5016953;28;20069;-85
2021/12/27 02:30:00;;;;;;;117.57;46.95;;;;;;;;;;5016793;28;20061;-85
2021/12/27 02:32:26;;;;;;;115.40;49.28;;;;;;;;;;5016528;28;20050;-85
2021/12/27 02:34:53;;;;;;;99.60;42.05;;;;;;;;;;5016556;28;20041;-85
2021/12/27 02:37:19;;;;;;;98.57;42.58;;;;;;;;;;5016736;28;20029;-84
2021/12/27 02:39:45;;;;;;;88.07;38.40;;;;;;;;;;5016676;28;20044;-84
2021/12/27 02:42:21;;;;;;;82.70;37.17;;;;;;;;;;5016648;28;20033;-85
2021/12/27 02:44:47;;;;;;;90.75;37.78;;;;;;;;;;5016594;28;20037;-85
2021/12/27 02:47:15;;;;;;;101.65;42.92;;;;;;;;;;5016549;28;20030;-85
2021/12/27 02:49:42;;;;;;;95.63;39.97;;;;;;;;;;5016320;28;20124;-85
2021/12/27 02:52:08;;;;;;;86.30;37.50;;;;;;;;;;5016602;28;20036;-85
2021/12/27 02:54:35;;;;;;;77.93;32.15;;;;;;;;;;5016628;28;20037;-85
2021/12/27 02:57:01;;;;;;;58.97;28.58;;;;;;;;;;5016497;28;20502;-84
2021/12/27 02:59:27;;;;;;;70.63;30.60;;;;;;;;;;5016509;28;20041;-84
2021/12/27 03:01:54;;;;;;;68.00;30.85;;;;;;;;;;5016560;28;20095;-86
2021/12/27 03:04:20;;;;;;;75.25;31.40;;;;;;;;;;5034312;28;20060;-84
2021/12/27 03:06:46;;;;;;;75.43;32.95;;;;;;;;;;5016353;28;20124;-85
2021/12/27 03:09:12;;;;;;;83.38;34.95;;;;;;;;;;5016469;28;20044;-85
2021/12/27 03:11:39;;;;;;;81.28;33.00;;;;;;;;;;5016115;28;20388;-84
2021/12/27 03:14:05;;;;;;;81.68;35.65;;;;;;;;;;5016295;28;20033;-84
2021/12/27 03:16:32;;;;;;;85.70;35.17;;;;;;;;;;5033717;28;20033;-84
2021/12/27 03:18:58;;;;;;;68.40;30.83;;;;;;;;;;5016195;28;20120;-84
2021/12/27 03:21:26;;;;;;;68.75;29.33;;;;;;;;;;5034067;28;20036;-84
2021/12/27 03:23:53;;;;;;;78.85;33.80;;;;;;;;;;5016194;28;20033;-85
2021/12/27 03:26:19;;;;;;;90.30;34.85;;;;;;;;;;5016306;28;20029;-84
2021/12/27 03:28:45;;;;;;;93.85;40.30;;;;;;;;;;5016275;28;20451;-84
2021/12/27 03:31:12;;;;;;;92.60;39.50;;;;;;;;;;5016084;28;20037;-84
2021/12/27 03:33:38;;;;;;;89.20;39.00;;;;;;;;;;5015933;28;20055;-84
2021/12/27 03:36:07;;;;;;;79.85;34.83;;;;;;;;;;5033812;28;20495;-85
2021/12/27 03:38:35;;;;;;;88.78;36.97;;;;;;;;;;5033881;28;20041;-85
2021/12/27 03:41:01;;;;;;;92.28;38.85;;;;;;;;;;5015775;28;20041;-85
2021/12/27 03:43:28;;;;;;;96.88;40.08;;;;;;;;;;5016297;28;20038;-86
2021/12/27 03:45:54;;;;;;;88.13;39.33;;;;;;;;;;5015902;28;20064;-84
2021/12/27 03:48:21;;;;;;;86.72;38.25;;;;;;;;;;5015967;28;20033;-85
2021/12/27 03:50:47;;;;;;;107.30;44.13;;;;;;;;;;5015925;28;20032;-85
2021/12/27 03:53:13;;;;;;;107.15;43.03;;;;;;;;;;5015988;28;20065;-85
2021/12/27 03:55:40;;;;;;;104.13;45.45;;;;;;;;;;5015829;28;20034;-85
2021/12/27 03:58:22;;;;;;;97.15;42.75;;;;;;;;;;5033122;28;20025;-85
2021/12/27 04:01:33;;;;;;;74.95;33.17;;;;;;;;;;5015868;28;20037;-85
2021/12/27 04:03:35;;;;;;;87.30;38.03;;;;;;;;;;5029790;28;20040;-85
2021/12/27 04:06:01;;;;;;;88.80;39.50;;;;;;;;;;5019579;28;20029;-85
2021/12/27 04:08:27;;;;;;;115.57;49.08;;;;;;;;;;5019493;28;20498;-85
2021/12/27 04:10:55;;;;;;;119.55;47.58;;;;;;;;;;5019664;28;20492;-84
2021/12/27 04:13:22;;;;;;;107.88;45.47;;;;;;;;;;5037236;28;20051;-85
2021/12/27 04:15:49;;;;;;;108.95;43.78;;;;;;;;;;5019510;28;20039;-85
2021/12/27 04:18:16;;;;;;;113.78;45.95;;;;;;;;;;5036950;28;20382;-85
2021/12/27 04:20:43;;;;;;;115.57;48.40;;;;;;;;;;5019508;28;20472;-85
2021/12/27 04:23:09;;;;;;;135.23;58.47;;;;;;;;;;5018816;28;20546;-85
2021/12/27 04:25:35;;;;;;;130.80;55.83;;;;;;;;;;5019365;28;20064;-84
2021/12/27 04:28:02;;;;;;;139.30;55.95;;;;;;;;;;5019210;28;20037;-85
2021/12/27 04:30:28;;;;;;;152.05;60.47;;;;;;;;;;5019146;28;20043;-85
2021/12/27 04:32:55;;;;;;;124.10;54.40;;;;;;;;;;5018755;28;20049;-85
2021/12/27 04:35:21;;;;;;;104.80;48.22;;;;;;;;;;5019271;28;20468;-85
2021/12/27 04:37:48;;;;;;;95.55;42.17;;;;;;;;;;5019011;28;20068;-85
2021/12/27 04:40:15;;;;;;;91.40;39.53;;;;;;;;;;5002714;28;20049;-85
2021/12/27 04:42:42;;;;;;;86.28;39.83;;;;;;;;;;5018880;28;20045;-85
2021/12/27 04:45:11;;;;;;;100.03;46.45;;;;;;;;;;5019022;28;20053;-85
2021/12/27 04:47:38;;;;;;;112.30;48.65;;;;;;;;;;5018895;28;20061;-85
2021/12/27 04:50:04;;;;;;;116.43;50.17;;;;;;;;;;5018960;28;20068;-86
2021/12/27 04:52:31;;;;;;;128.23;56.47;;;;;;;;;;5018738;28;20029;-85
2021/12/27 04:54:57;;;;;;;109.10;47.63;;;;;;;;;;5018865;28;20044;-86
2021/12/27 04:57:23;;;;;;;90.47;42.13;;;;;;;;;;5018665;28;20030;-85
2021/12/27 04:59:50;;;;;;;90.00;41.50;;;;;;;;;;5036635;28;20041;-85
2021/12/27 05:02:16;;;;;;;88.97;39.55;;;;;;;;;;5018618;28;20037;-85
2021/12/27 05:04:43;;;;;;;95.30;42.92;;;;;;;;;;5018605;28;20045;-86
2021/12/27 05:07:09;;;;;;;90.30;42.70;;;;;;;;;;5018194;28;20029;-85
2021/12/27 05:09:35;;;;;;;79.40;38.22;;;;;;;;;;5018470;28;20086;-85
2021/12/27 05:12:01;;;;;;;74.68;34.97;;;;;;;;;;5018506;28;20029;-86
2021/12/27 05:14:28;;;;;;;97.53;45.85;;;;;;;;;;5018464;28;20033;-85
2021/12/27 05:16:54;;;;;;;110.22;51.63;;;;;;;;;;5018193;28;20115;-86
2021/12/27 05:19:20;;;;;;;105.30;48.38;;;;;;;;;;5018387;28;20040;-85
2021/12/27 05:21:47;;;;;;;88.03;41.70;;;;;;;;;;5018231;28;20117;-86
2021/12/27 05:24:13;;;;;;;74.03;36.00;;;;;;;;;;5018551;28;20495;-85
2021/12/27 05:26:40;;;;;;;78.38;36.88;;;;;;;;;;5017880;28;20502;-85
2021/12/27 05:29:06;;;;;;;78.40;37.53;;;;;;;;;;5018257;28;20033;-86
2021/12/27 05:31:32;;;;;;;105.28;46.47;;;;;;;;;;5017949;28;20060;-86
2021/12/27 05:33:59;;;;;;;97.97;45.65;;;;;;;;;;5018027;28;20053;-86
2021/12/27 05:36:25;;;;;;;104.30;47.90;;;;;;;;;;5036073;28;20104;-85
2021/12/27 05:38:51;;;;;;;100.65;47.35;;;;;;;;;;5018272;28;20041;-85
2021/12/27 05:41:18;;;;;;;95.40;47.20;;;;;;;;;;5035582;28;20045;-85
2021/12/27 05:43:44;;;;;;;92.45;44.78;;;;;;;;;;5017687;28;20120;-86
2021/12/27 05:46:10;;;;;;;92.60;44.78;;;;;;;;;;5017972;28;20124;-86
2021/12/27 05:48:37;;;;;;;93.20;43.53;;;;;;;;;;5017746;28;20038;-85
2021/12/27 05:51:03;;;;;;;96.50;43.05;;;;;;;;;;5035654;28;20030;-86
2021/12/27 05:53:29;;;;;;;83.65;39.00;;;;;;;;;;5017636;28;20037;-85
2021/12/27 05:55:55;;;;;;;75.40;37.42;;;;;;;;;;5017811;28;20033;-85
2021/12/27 05:58:22;;;;;;;67.88;34.28;;;;;;;;;;5017626;28;20140;-85
2021/12/27 06:00:48;;;;;;;66.25;33.65;;;;;;;;;;5017463;28;20041;-86
2021/12/27 06:03:15;;;;;;;59.08;31.02;;;;;;;;;;5017459;28;20459;-86
2021/12/27 06:05:41;;;;;;;62.92;33.35;;;;;;;;;;5017307;28;20034;-85
2021/12/27 06:08:07;;;;;;;62.10;31.63;;;;;;;;;;5017463;28;20034;-85
2021/12/27 06:10:34;;;;;;;56.55;28.10;;;;;;;;;;5017339;28;20061;-85
2021/12/27 06:13:01;;;;;;;54.78;28.52;;;;;;;;;;5017373;28;20030;-86
2021/12/27 06:15:27;;;;;;;53.85;27.27;;;;;;;;;;5017269;28;20029;-85
2021/12/27 06:17:53;;;;;;;58.60;27.35;;;;;;;;;;5017184;28;20033;-85
2021/12/27 06:20:20;;;;;;;81.57;41.50;;;;;;;;;;5017691;28;20037;-85
2021/12/27 06:22:53;;;;;;;85.72;42.50;;;;;;;;;;5017257;28;20116;-86
2021/12/27 06:25:19;;;;;;;96.15;43.65;;;;;;;;;;5016575;28;20029;-85
2021/12/27 06:27:46;;;;;;;84.97;41.97;;;;;;;;;;5017039;28;20449;-85
2021/12/27 06:30:13;;;;;;;88.60;43.88;;;;;;;;;;5016852;28;20040;-85
2021/12/27 06:32:40;;;;;;;97.47;46.28;;;;;;;;;;5016670;28;20454;-86
2021/12/27 06:35:07;;;;;;;100.35;49.20;;;;;;;;;;5017476;28;20124;-85
2021/12/27 06:37:33;;;;;;;99.53;46.55;;;;;;;;;;5034648;28;20034;-85
2021/12/27 06:39:59;;;;;;;99.35;47.65;;;;;;;;;;5016779;28;20056;-85
2021/12/27 06:42:26;;;;;;;104.70;46.70;;;;;;;;;;5016969;28;20048;-85
2021/12/27 06:44:52;;;;;;;98.88;47.03;;;;;;;;;;5016713;28;20032;-86
2021/12/27 06:47:18;;;;;;;102.80;47.53;;;;;;;;;;5034731;28;20033;-86
2021/12/27 06:49:47;;;;;;;105.10;48.83;;;;;;;;;;5016821;28;20033;-86
2021/12/27 06:52:13;;;;;;;118.47;53.45;;;;;;;;;;5016797;28;20034;-86
2021/12/27 06:54:41;;;;;;;102.53;49.15;;;;;;;;;;5034399;28;20104;-86
2021/12/27 06:57:07;;;;;;;116.35;52.92;;;;;;;;;;5016734;28;20035;-85
2021/12/27 06:59:34;;;;;;;110.25;52.38;;;;;;;;;;5034179;28;20113;-86
2021/12/27 07:02:00;;;;;;;118.22;55.17;;;;;;;;;;5016647;28;20076;-86
2021/12/27 07:04:26;;;;;;;100.85;48.50;;;;;;;;;;5016466;28;20034;-86
2021/12/27 07:06:53;;;;;;;115.63;55.10;;;;;;;;;;5016483;28;20137;-85
2021/12/27 07:09:19;;;;;;;120.13;53.03;;;;;;;;;;5016385;28;20045;-85
2021/12/27 07:11:46;;;;;;;119.28;55.28;;;;;;;;;;5016450;28;20112;-85
2021/12/27 07:14:12;;;;;;;113.13;53.00;;;;;;;;;;5016450;28;20025;-85
2021/12/27 07:16:38;;;;;;;117.80;53.30;;;;;;;;;;5016488;28;20051;-86
2021/12/27 07:19:05;;;;;;;112.43;52.20;;;;;;;;;;5016275;28;20038;-85
2021/12/27 07:21:31;;;;;;;112.45;51.75;;;;;;;;;;5016405;28;20109;-86
2021/12/27 07:23:57;;;;;;;122.40;57.72;;;;;;;;;;5016178;28;20025;-85
2021/12/27 07:26:23;;;;;;;118.15;53.92;;;;;;;;;;5016561;28;20384;-85
2021/12/27 07:28:50;;;;;;;114.43;55.83;;;;;;;;;;5016080;28;20124;-85
2021/12/27 07:31:16;;;;;;;131.93;58.53;;;;;;;;;;5016061;28;20033;-85
2021/12/27 07:33:42;;;;;;;115.50;53.10;;;;;;;;;;5015980;28;20144;-85
2021/12/27 07:36:10;;;;;;;123.95;56.45;;;;;;;;;;5016197;28;20036;-85
2021/12/27 07:38:37;;;;;;;122.07;55.50;;;;;;;;;;5019917;28;20514;-85
2021/12/27 07:41:04;;;;;;;128.52;54.65;;;;;;;;;;5020147;28;20124;-85
2021/12/27 07:43:30;;;;;;;123.63;55.38;;;;;;;;;;5019898;28;20033;-85
2021/12/27 07:45:56;;;;;;;128.73;58.15;;;;;;;;;;5019937;28;20472;-85
2021/12/27 07:48:22;;;;;;;125.53;55.85;;;;;;;;;;5037894;28;20037;-85
2021/12/27 07:50:49;;;;;;;134.90;57.55;;;;;;;;;;5020039;28;20026;-85
2021/12/27 07:53:15;;;;;;;124.25;54.70;;;;;;;;;;5019914;28;20037;-85
2021/12/27 07:55:42;;;;;;;117.95;52.72;;;;;;;;;;5019845;28;20037;-86
2021/12/27 07:58:09;;;;;;;125.45;54.40;;;;;;;;;;5019795;28;20033;-85
2021/12/27 08:00:35;;;;;;;114.15;50.97;;;;;;;;;;5019987;28;20103;-86
2021/12/27 08:03:01;;;;;;;115.25;52.03;;;;;;;;;;5019883;28;20030;-85
2021/12/27 08:05:28;;;;;;;125.45;52.30;;;;;;;;;;5019564;28;20029;-86
2021/12/27 08:07:55;;;;;;;112.75;49.40;;;;;;;;;;5037438;28;20053;-85
2021/12/27 08:10:21;;;;;;;115.07;51.35;;;;;;;;;;5037335;28;20482;-85
2021/12/27 08:12:47;;;;;;;129.10;56.78;;;;;;;;;;5019665;28;20029;-85
2021/12/27 08:15:14;;;;;;;124.20;57.72;;;;;;;;;;5019665;28;20029;-85
2021/12/27 08:17:40;;;;;;;170.05;71.85;;;;;;;;;;5019441;28;20129;-85
2021/12/27 08:20:07;;;;;;;168.93;70.75;;;;;;;;;;5019486;28;20040;-85
2021/12/27 08:22:33;;;;;;;143.85;59.50;;;;;;;;;;5019570;28;20040;-85
2021/12/27 08:25:00;;;;;;;123.80;58.95;;;;;;;;;;5037044;28;20036;-85
2021/12/27 08:27:27;;;;;;;120.53;54.70;;;;;;;;;;5019282;28;20064;-85
2021/12/27 08:29:54;;;;;;;133.48;59.92;;;;;;;;;;5019279;28;20034;-86
2021/12/27 08:32:20;;;;;;;143.55;60.45;;;;;;;;;;5019231;28;20141;-85
2021/12/27 08:34:46;;;;;;;147.32;62.00;;;;;;;;;;5036917;28;20037;-86
2021/12/27 08:37:13;;;;;;;151.48;65.32;;;;;;;;;;5019158;28;20040;-86
2021/12/27 08:39:40;;;;;;;136.73;60.00;;;;;;;;;;5019014;28;20106;-86
2021/12/27 08:42:07;;;;;;;136.65;59.10;;;;;;;;;;5019042;28;20480;-85
2021/12/27 08:44:35;;;;;;;137.85;60.13;;;;;;;;;;5018999;28;20033;-85
2021/12/27 08:47:01;;;;;;;178.25;71.30;;;;;;;;;;5018960;28;20387;-85
2021/12/27 08:49:27;;;;;;;158.75;69.00;;;;;;;;;;5018550;28;20029;-85
2021/12/27 08:51:54;;;;;;;178.23;74.15;;;;;;;;;;5018872;28;20040;-87
2021/12/27 08:54:20;;;;;;;182.35;76.43;;;;;;;;;;5018638;28;20029;-85
2021/12/27 08:56:46;;;;;;;160.20;66.85;;;;;;;;;;5018723;28;20084;-86
2021/12/27 08:59:13;;;;;;;154.68;67.32;;;;;;;;;;5018506;28;20515;-85
2021/12/27 09:01:39;;;;;;;160.63;67.65;;;;;;;;;;5036568;28;20041;-85
2021/12/27 09:04:07;;;;;;;158.15;65.20;;;;;;;;;;5018693;28;20484;-85
2021/12/27 09:06:34;;;;;;;154.77;67.68;;;;;;;;;;5018381;28;20033;-85
2021/12/27 09:09:01;;;;;;;162.35;71.22;;;;;;;;;;5018558;28;20034;-85
2021/12/27 09:11:27;;;;;;;164.88;68.07;;;;;;;;;;5018517;28;20037;-84
2021/12/27 09:13:54;;;;;;;221.45;85.93;;;;;;;;;;5018513;28;20025;-85
2021/12/27 09:16:20;;;;;;;211.43;85.22;;;;;;;;;;5018397;28;20096;-85
2021/12/27 09:18:46;;;;;;;248.85;95.00;;;;;;;;;;5018427;28;20033;-85
2021/12/27 09:21:13;;;;;;;234.40;93.43;;;;;;;;;;5035897;28;20037;-85
2021/12/27 09:23:39;;;;;;;260.25;99.45;;;;;;;;;;5018247;28;20029;-85
2021/12/27 09:26:06;;;;;;;242.27;93.13;;;;;;;;;;5017950;28;20026;-85
2021/12/27 09:28:32;;;;;;;252.65;95.57;;;;;;;;;;5018358;28;20112;-85
2021/12/27 09:30:59;;;;;;;229.68;90.93;;;;;;;;;;5018109;28;20091;-85
2021/12/27 09:33:26;;;;;;;239.73;89.18;;;;;;;;;;5035638;28;20103;-85
2021/12/27 09:35:54;;;;;;;243.27;96.38;;;;;;;;;;5018320;28;20045;-85
2021/12/27 09:38:20;;;;;;;241.77;92.20;;;;;;;;;;5035706;28;20424;-85
2021/12/27 09:40:47;;;;;;;223.38;91.10;;;;;;;;;;5017872;28;20033;-85
2021/12/27 09:43:13;;;;;;;217.88;84.38;;;;;;;;;;5017836;28;20088;-85
2021/12/27 09:45:39;;;;;;;209.50;79.97;;;;;;;;;;5017694;28;20025;-85
2021/12/27 09:48:06;;;;;;;211.80;84.97;;;;;;;;;;5017734;28;20419;-85
2021/12/27 09:50:34;;;;;;;201.38;78.25;;;;;;;;;;5017674;28;20034;-85
2021/12/27 09:53:01;;;;;;;190.27;76.53;;;;;;;;;;5017548;28;20483;-85
2021/12/27 09:55:27;;;;;;;222.35;79.50;;;;;;;;;;5017704;28;20033;-84
2021/12/27 09:57:54;;;;;;;187.02;74.20;;;;;;;;;;5017526;28;20120;-85
2021/12/27 10:00:20;;;;;;;178.63;72.45;;;;;;;;;;5016730;28;20520;-85
2021/12/27 10:02:49;;;;;;;183.02;71.47;;;;;;;;;;5017449;28;20060;-85
2021/12/27 10:05:15;;;;;;;181.18;72.15;;;;;;;;;;5017461;28;20116;-85
2021/12/27 10:07:42;;;;;;;160.18;67.63;;;;;;;;;;5017283;28;20103;-85
2021/12/27 10:10:09;;;;;;;182.93;70.43;;;;;;;;;;5017344;28;20037;-85
2021/12/27 10:12:36;;;;;;;178.98;70.90;;;;;;;;;;5035071;28;20044;-85
2021/12/27 10:15:04;;;;;;;176.15;66.43;;;;;;;;;;5017242;28;20026;-85
2021/12/27 10:17:31;;;;;;;182.45;68.80;;;;;;;;;;5016961;28;20053;-86
2021/12/27 10:20:08;;;;;;;164.60;67.38;;;;;;;;;;5017134;28;20045;-85
2021/12/27 10:22:37;;;;;;;168.23;65.18;;;;;;;;;;5017474;28;20033;-85
2021/12/27 10:25:08;;;;;;;171.45;68.40;;;;;;;;;;5001007;28;20033;-85
2021/12/27 10:27:36;;;;;;;179.57;71.07;;;;;;;;;;5017175;28;20431;-85
2021/12/27 10:30:09;;;;;;;165.77;67.05;;;;;;;;;;5017011;28;20033;-85
2021/12/27 10:32:35;;;;;;;181.38;69.53;;;;;;;;;;5016920;28;20054;-85
2021/12/27 10:35:05;;;;;;;186.52;71.97;;;;;;;;;;5017096;28;20132;-85
2021/12/27 10:37:32;;;;;;;189.65;72.78;;;;;;;;;;5017105;28;20045;-85
2021/12/27 10:40:01;;;;;;;170.88;69.68;;;;;;;;;;5016841;28;20221;-85
2021/12/27 10:42:36;;;;;;;192.50;74.43;;;;;;;;;;5016897;28;20365;-85
2021/12/27 10:45:05;;;;;;;163.25;67.65;;;;;;;;;;5016789;28;20388;-85
2021/12/27 10:47:36;;;;;;;171.63;71.68;;;;;;;;;;5016788;28;20034;-86
2021/12/27 10:50:10;;;;;;;179.98;70.07;;;;;;;;;;5016668;28;20030;-86
2021/12/27 10:52:41;;;;;;;165.48;64.07;;;;;;;;;;5016745;28;20038;-85
2021/12/27 10:55:08;;;;;;;184.88;74.78;;;;;;;;;;5016697;28;20087;-85
2021/12/27 10:57:34;;;;;;;172.55;67.97;;;;;;;;;;5016641;28;20087;-85
2021/12/27 11:00:16;;;;;;;166.52;69.63;;;;;;;;;;5016579;28;20034;-85
2021/12/27 11:02:42;;;;;;;176.95;70.82;;;;;;;;;;5016560;28;20029;-85
2021/12/27 11:05:12;;;;;;;179.65;71.97;;;;;;;;;;5016581;28;20484;-85
2021/12/27 11:07:40;;;;;;;183.65;72.03;;;;;;;;;;5016393;28;20041;-85
2021/12/27 11:10:07;;;;;;;183.48;73.70;;;;;;;;;;5016350;28;20037;-85
2021/12/27 11:12:33;;;;;;;180.05;69.20;;;;;;;;;;5016434;28;20033;-85
2021/12/27 11:15:00;;;;;;;190.45;76.30;;;;;;;;;;5016602;28;20036;-86
2021/12/27 11:17:26;;;;;;;185.23;71.15;;;;;;;;;;5016446;28;20068;-85
2021/12/27 11:19:52;;;;;;;186.65;72.22;;;;;;;;;;5016273;28;20041;-85
2021/12/27 11:22:18;;;;;;;188.63;73.50;;;;;;;;;;5016229;28;20409;-85
2021/12/27 11:24:45;;;;;;;204.93;77.22;;;;;;;;;;5016393;28;20049;-85
2021/12/27 11:27:12;;;;;;;192.82;78.50;;;;;;;;;;5016263;28;20033;-85
2021/12/27 11:29:39;;;;;;;215.35;85.65;;;;;;;;;;5016393;28;20041;-85
2021/12/27 11:32:16;;;;;;;202.88;84.20;;;;;;;;;;5016256;28;20112;-85
2021/12/27 11:35:03;;;;;;;211.65;85.15;;;;;;;;;;5033886;28;20038;-85
2021/12/27 11:37:40;;;;;;;193.65;76.97;;;;;;;;;;5016229;28;20030;-85
2021/12/27 11:40:08;;;;;;;205.25;84.43;;;;;;;;;;5016126;28;20064;-85
2021/12/27 11:43:07;;;;;;;218.88;85.07;;;;;;;;;;5033851;28;20029;-86
2021/12/27 11:45:41;;;;;;;232.88;95.43;;;;;;;;;;4983750;28;20034;-85
2021/12/27 11:48:12;;;;;;;238.32;92.70;;;;;;;;;;5033902;28;20036;-86
2021/12/27 11:51:10;;;;;;;235.02;90.35;;;;;;;;;;5016124;28;20059;-85
2021/12/27 11:53:44;;;;;;;260.95;98.43;;;;;;;;;;4983776;28;20030;-85
2021/12/27 11:56:12;;;;;;;250.07;95.70;;;;;;;;;;5016055;28;20030;-85
2021/12/27 11:58:44;;;;;;;248.05;95.88;;;;;;;;;;5015972;28;20041;-85
2021/12/27 12:01:23;;;;;;;263.40;101.50;;;;;;;;;;5033813;28;20039;-86
2021/12/27 12:03:50;;;;;;;211.40;84.30;;;;;;;;;;5015956;28;20038;-86
2021/12/27 12:06:36;;;;;;;259.85;98.30;;;;;;;;;;5015881;28;20031;-85
2021/12/27 12:09:09;;;;;;;271.80;103.38;;;;;;;;;;5015909;28;20117;-85
2021/12/27 12:11:35;;;;;;;260.58;99.30;;;;;;;;;;5015857;28;20033;-85
2021/12/27 12:14:20;;;;;;;268.42;100.22;;;;;;;;;;5015895;28;20534;-85
2021/12/27 12:16:47;;;;;;;255.05;101.30;;;;;;;;;;5015860;28;20083;-86
2021/12/27 12:19:13;;;;;;;280.55;101.97;;;;;;;;;;5015796;28;20037;-85
2021/12/27 12:21:44;;;;;;;259.58;94.43;;;;;;;;;;5016100;28;20037;-85
2021/12/27 12:24:14;;;;;;;252.60;96.72;;;;;;;;;;5018749;28;20088;-85
2021/12/27 12:26:51;;;;;;;247.18;95.70;;;;;;;;;;5019303;28;20472;-86
2021/12/27 12:29:17;;;;;;;253.70;98.75;;;;;;;;;;5019330;28;20109;-85
2021/12/27 12:31:44;;;;;;;258.20;101.95;;;;;;;;;;5018960;28;20060;-85
2021/12/27 12:34:15;;;;;;;256.15;100.95;;;;;;;;;;5019297;28;20034;-84
2021/12/27 12:36:45;;;;;;;251.23;97.28;;;;;;;;;;5019201;28;20129;-85
2021/12/27 12:39:12;;;;;;;259.50;102.13;;;;;;;;;;5018819;28;20124;-85
2021/12/27 12:41:40;;;;;;;272.13;100.55;;;;;;;;;;5036943;28;20026;-84
2021/12/27 12:44:07;;;;;;;240.18;93.85;;;;;;;;;;5018786;28;20032;-85
2021/12/27 12:46:42;;;;;;;216.88;86.53;;;;;;;;;;5019011;28;20033;-85
2021/12/27 12:49:16;;;;;;;239.75;91.93;;;;;;;;;;5019050;28;20041;-85
2021/12/27 12:51:47;;;;;;;239.15;94.38;;;;;;;;;;5018824;28;20025;-85
2021/12/27 12:54:16;;;;;;;252.60;95.45;;;;;;;;;;5036549;28;20034;-85
2021/12/27 12:56:43;;;;;;;242.05;94.47;;;;;;;;;;5036693;28;20180;-85
2021/12/27 12:59:23;;;;;;;239.02;91.13;;;;;;;;;;5018903;28;20423;-85
2021/12/27 13:02:13;;;;;;;251.77;96.35;;;;;;;;;;5018729;28;20026;-84
2021/12/27 13:04:53;;;;;;;261.20;99.93;;;;;;;;;;5011039;28;20038;-85
2021/12/27 13:07:35;;;;;;;243.50;92.90;;;;;;;;;;5035978;28;20042;-85
2021/12/27 13:10:03;;;;;;;266.30;99.30;;;;;;;;;;5018791;28;20033;-85
2021/12/27 13:12:30;;;;;;;234.82;96.28;;;;;;;;;;5018562;28;20033;-85
2021/12/27 13:14:57;;;;;;;241.00;91.88;;;;;;;;;;5018513;28;20064;-84
2021/12/27 13:17:25;;;;;;;279.23;103.40;;;;;;;;;;5018485;28;20030;-85
2021/12/27 13:20:18;;;;;;;280.90;104.95;;;;;;;;;;5035996;28;20116;-84
2021/12/27 13:22:46;;;;;;;259.02;98.35;;;;;;;;;;5015777;28;20160;-85
2021/12/27 13:25:13;;;;;;;244.55;91.10;;;;;;;;;;5018325;28;20033;-84
2021/12/27 13:27:40;;;;;;;268.40;95.20;;;;;;;;;;5018304;28;20067;-85
2021/12/27 13:30:08;;;;;;;270.98;100.93;;;;;;;;;;5018151;28;20044;-85
2021/12/27 13:32:34;;;;;;;244.93;92.05;;;;;;;;;;5017884;28;20052;-85
2021/12/27 13:35:01;;;;;;;239.20;92.07;;;;;;;;;;5016728;28;20038;-85
2021/12/27 13:37:27;;;;;;;272.85;100.90;;;;;;;;;;5017883;28;20034;-85
2021/12/27 13:40:07;;;;;;;228.60;90.93;;;;;;;;;;5017883;28;20391;-85
2021/12/27 13:42:33;;;;;;;245.43;93.45;;;;;;;;;;5017932;28;20428;-85
2021/12/27 13:45:08;;;;;;;215.07;81.60;;;;;;;;;;5001616;28;20041;-84
2021/12/27 13:47:35;;;;;;;209.00;80.97;;;;;;;;;;5035553;28;20029;-85
2021/12/27 13:50:01;;;;;;;210.98;82.00;;;;;;;;;;5017814;28;20453;-85
2021/12/27 13:52:28;;;;;;;252.40;87.03;;;;;;;;;;5035810;28;20037;-84
2021/12/27 13:54:54;;;;;;;256.92;90.28;;;;;;;;;;5017540;28;20037;-85
2021/12/27 13:57:34;;;;;;;224.05;82.43;;;;;;;;;;5017616;28;20472;-84
2021/12/27 14:00:02;;;;;;;207.77;79.13;;;;;;;;;;5017330;28;20037;-84
2021/12/27 14:02:38;;;;;;;229.32;83.88;;;;;;;;;;5017439;28;20439;-85
2021/12/27 14:05:07;;;;;;;249.00;88.10;;;;;;;;;;5017544;28;20029;-85
2021/12/27 14:07:33;;;;;;;245.40;87.15;;;;;;;;;;5017289;28;20507;-85
2021/12/27 14:10:00;;;;;;;252.52;88.00;;;;;;;;;;5001273;28;20129;-84
2021/12/27 14:12:30;;;;;;;230.65;84.82;;;;;;;;;;5017272;28;20025;-85
2021/12/27 14:15:01;;;;;;;246.63;89.18;;;;;;;;;;5017316;28;20029;-85